Flight Track Log - Related Links

Times and Time Zones

All times are in EDT time to prevent confusion due to time zone crossing. See the SWA1319 flight status page for this flight to view local times or setup timezone preferences in your user account.


Time Position Orientation Groundspeed Altitude Reporting Facility
EDT Latitude Longitude Course Direction KTS MPH feet Rate Location/Type
Mon 10:47:15 AM 39.1678 -76.8150 278° West 278 320 7,000  Level Washington Center
Mon 10:47:45 AM 39.1833 -76.8667 291° West 284 327 9,100 2,467 Climbing Potomac TRACON
Mon 10:50:00 AM 39.1215 -77.2148 211° Southwest  Level FlightAware Approximate
Mon 10:50:15 AM 39.2097 -77.1481 277° West 353 406 14,400  Level Washington Center
Mon 10:51:15 AM 39.1317 -77.2264 218° Southwest 366 421 16,600 1,950 Climbing Washington Center
Mon 10:52:15 AM 39.0494 -77.2969 214° Southwest 392 451 18,300 2,150 Climbing Washington Center
Mon 10:53:15 AM 38.9567 -77.3642 209° Southwest 392 451 20,900 1,900 Climbing Washington Center
Mon 10:54:15 AM 38.8556 -77.4256 205° Southwest 419 482 22,100 1,050 Climbing Washington Center
Mon 10:55:15 AM 38.7714 -77.4822 208° Southwest 367 422 23,000 450 Climbing Washington Center
Mon 10:56:15 AM 38.6636 -77.5697 212° Southwest 407 468 23,000  Level Washington Center
Mon 10:57:15 AM 38.5767 -77.6578 218° Southwest 414 476 23,000  Level Washington Center
Mon 10:58:14 AM 38.4917 -77.7508 221° Southwest 414 476 23,000 807 Level Washington Center
Mon 10:59:14 AM 38.4311 -77.8683 237° Southwest 401 461 24,600 1,550 Climbing Washington Center
Mon 11:00:14 AM 38.3683 -77.9911 237° Southwest 411 473 26,100 1,537 Climbing Washington Center
Mon 11:01:15 AM 38.3031 -78.1158 236° Southwest 416 479 27,700 1,350 Climbing Washington Center
Mon 11:02:14 AM 38.2381 -78.2378 236° Southwest 421 484 28,800 1,150 Climbing Washington Center
Mon 11:03:15 AM 38.1706 -78.3622 235° Southwest 431 496 30,000 595 Climbing Washington Center
Mon 11:04:15 AM 38.1092 -78.4867 238° Southwest 431 496 30,000  Level Washington Center
Mon 11:05:14 AM 38.0706 -78.6197 250° West 414 476 30,000 50 Level Washington Center
Mon 11:06:14 AM 38.0208 -78.7681 247° West 414 476 30,100 1,140 Climbing Washington Center
Mon 11:07:15 AM 37.9778 -78.8953 247° West 409 471 32,300 1,587 Climbing Washington Center
Mon 11:08:15 AM 37.9367 -79.0172 247° West 396 456 33,300 857 Climbing Washington Center
Mon 11:09:14 AM 37.8914 -79.1361 244° Southwest 385 443 34,000 353 Climbing Washington Center
Mon 11:10:14 AM 37.8406 -79.2392 238° Southwest 385 443 34,000  Level Washington Center
Mon 11:11:15 AM 37.7828 -79.3544 238° Southwest 385 443 34,000 300 Level Washington Center
Mon 11:12:14 AM 37.7247 -79.4697 238° Southwest 390 449 34,600 958 Climbing Washington Center
Mon 11:13:14 AM 37.6625 -79.5872 236° Southwest 382 440 35,900 694 Climbing Washington Center
Mon 11:14:15 AM 37.6064 -79.6997 238° Southwest 377 434 36,000 50 Climbing Washington Center
Mon 11:15:14 AM 37.5506 -79.8092 237° Southwest 377 434 36,000  Level Washington Center
Mon 11:16:14 AM 37.4989 -79.9164 239° Southwest 393 452 36,000  Level Washington Center
Mon 11:17:14 AM 37.4425 -80.0256 237° Southwest 393 452 36,000  Level Washington Center
Mon 11:18:27 AM 37.3731 -80.1583 237° Southwest 391 450 36,000  Level Atlanta Center
Mon 11:19:27 AM 37.3103 -80.2789 237° Southwest 385 443 36,000  Level Atlanta Center
Mon 11:20:27 AM 37.2531 -80.3886 237° Southwest 385 443 36,000  Level Atlanta Center
Mon 11:21:27 AM 37.1958 -80.4981 237° Southwest 380 437 36,000  Level Atlanta Center
Mon 11:22:27 AM 37.1386 -80.6100 237° Southwest 380 437 36,000  Level Atlanta Center
Mon 11:23:27 AM 37.0872 -80.7136 238° Southwest 380 437 36,000  Level Atlanta Center
Mon 11:24:27 AM 37.0422 -80.8325 245° Southwest 380 437 36,000  Level Atlanta Center
Mon 11:25:27 AM 36.9997 -80.9539 246° West 380 437 36,000  Level Atlanta Center
Mon 11:26:27 AM 36.9547 -81.0750 245° Southwest 385 443 36,000  Level Atlanta Center
Mon 11:27:27 AM 36.9078 -81.2067 246° West 385 443 36,000  Level Atlanta Center
Mon 11:28:27 AM 36.8644 -81.3250 245° Southwest 380 437 36,000  Level Atlanta Center
Mon 11:29:27 AM 36.8253 -81.4403 247° West 380 437 36,000  Level Atlanta Center
Mon 11:30:27 AM 36.7839 -81.5531 245° Southwest 374 430 36,000  Level Atlanta Center
Mon 11:31:27 AM 36.7467 -81.6708 249° West 369 425 36,000  Level Atlanta Center
Mon 11:32:27 AM 36.7028 -81.7861 245° Southwest 369 425 36,000  Level Atlanta Center
Mon 11:33:27 AM 36.6592 -81.9011 245° Southwest 369 425 36,000  Level Atlanta Center
Mon 11:34:27 AM 36.6153 -82.0214 246° West 369 425 36,000  Level Atlanta Center
Mon 11:35:27 AM 36.5711 -82.1389 245° Southwest 375 432 36,000  Level Atlanta Center
Mon 11:36:27 AM 36.5331 -82.2456 246° West 375 432 36,000  Level Atlanta Center
Mon 11:37:27 AM 36.4869 -82.3628 244° Southwest 380 437 36,000  Level Atlanta Center
Mon 11:38:27 AM 36.4425 -82.4800 245° Southwest 380 437 36,000  Level Atlanta Center
Mon 11:39:27 AM 36.3981 -82.5994 245° Southwest 380 437 36,000  Level Atlanta Center
Mon 11:40:27 AM 36.3556 -82.7136 245° Southwest 380 437 36,000  Level Atlanta Center
Mon 11:41:27 AM 36.3131 -82.8303 246° West 380 437 36,000  Level Atlanta Center
Mon 11:42:27 AM 36.2683 -82.9469 245° Southwest 375 432 36,000  Level Atlanta Center
Mon 11:43:27 AM 36.2233 -83.0633 244° Southwest 375 432 36,000  Level Atlanta Center
Mon 11:44:27 AM 36.1783 -83.1794 244° Southwest 375 432 36,000  Level Atlanta Center
Mon 11:45:27 AM 36.1311 -83.3061 245° Southwest 380 437 36,000  Level Atlanta Center
Mon 11:46:27 AM 36.0881 -83.4219 245° Southwest 380 437 36,000  Level Atlanta Center
Mon 11:47:27 AM 36.0428 -83.5381 244° Southwest 380 437 36,000  Level Atlanta Center
Mon 11:48:27 AM 35.9992 -83.6486 244° Southwest 374 430 36,000  Level Atlanta Center
Mon 11:49:27 AM 35.9558 -83.7642 245° Southwest 374 430 36,000  Level Atlanta Center
Mon 11:50:27 AM 35.9122 -83.8772 245° Southwest 374 430 36,000  Level Atlanta Center
Mon 11:51:27 AM 35.8475 -83.9772 231° Southwest 374 430 36,000  Level Atlanta Center
Mon 11:52:27 AM 35.7767 -84.0744 228° Southwest 379 436 36,000  Level Atlanta Center
Mon 11:53:27 AM 35.7078 -84.1717 229° Southwest 379 436 36,000  Level Atlanta Center
Mon 11:54:27 AM 35.6367 -84.2661 227° Southwest 379 436 36,000  Level Atlanta Center
Mon 11:55:27 AM 35.5675 -84.3631 229° Southwest 385 443 36,000  Level Atlanta Center
Mon 11:56:27 AM 35.5111 -84.4444 230° Southwest 385 443 36,000  Level Atlanta Center
Mon 11:57:27 AM 35.4336 -84.5486 228° Southwest 385 443 36,000  Level Atlanta Center
Mon 11:58:27 AM 35.3622 -84.6450 228° Southwest 385 443 36,000  Level Atlanta Center
Mon 11:59:27 AM 35.2947 -84.7436 230° Southwest 385 443 36,000  Level Atlanta Center
Mon 12:00:27 PM 35.2233 -84.8369 227° Southwest 385 443 36,000  Level Atlanta Center
Mon 12:01:27 PM 35.1539 -84.9356 229° Southwest 385 443 36,000 -350 Level Atlanta Center
Mon 12:02:27 PM 35.0842 -85.0286 228° Southwest 385 443 35,300 -500 Descending Atlanta Center
Mon 12:03:27 PM 35.0144 -85.1242 228° Southwest 385 443 35,000 -150 Descending Atlanta Center
Mon 12:04:27 PM 34.9447 -85.2194 228° Southwest 385 443 35,000  Level Atlanta Center
Mon 12:05:27 PM 34.8728 -85.3172 228° Southwest 385 443 35,000  Level Atlanta Center
Mon 12:06:27 PM 34.7989 -85.4147 227° Southwest 385 443 35,000 -300 Level Atlanta Center
Mon 12:07:27 PM 34.7267 -85.5122 228° Southwest 385 443 34,400 -1,350 Descending Atlanta Center
Mon 12:08:27 PM 34.6547 -85.6069 227° Southwest 385 443 32,300 -2,400 Descending Atlanta Center
Mon 12:09:27 PM 34.5886 -85.6992 229° Southwest 385 443 29,600 -2,450 Descending Atlanta Center
Mon 12:10:27 PM 34.5186 -85.7883 226° Southwest 385 443 27,400 -2,250 Descending Atlanta Center
Mon 12:11:27 PM 34.4464 -85.8825 227° Southwest 368 423 25,100 -2,200 Descending Atlanta Center
Mon 12:12:27 PM 34.3781 -85.9717 227° Southwest 361 415 23,000 -2,150 Descending Atlanta Center
Mon 12:13:27 PM 34.3142 -86.0583 228° Southwest 355 409 20,800 -2,250 Descending Atlanta Center
Mon 12:14:27 PM 34.2500 -86.1447 228° Southwest 355 409 18,500 -2,582 Descending Atlanta Center
Mon 12:16:12 PM 34.1325 -86.3025 228° Southwest 357 411 13,700 -2,550 Descending Atlanta Center
Mon 12:16:27 PM 34.1175 -86.3197 224° Southwest 355 409 13,400 -1,286 Descending Atlanta Center
Mon 12:16:54 PM 34.0833 -86.3614 225° Southwest 341 392 12,800 -1,200 Descending Atlanta Center
Mon 12:17:27 PM 34.0556 -86.4006 229° Southwest 352 405 12,200 -1,377 Descending Atlanta Center
Mon 12:17:55 PM 34.0256 -86.4400 227° Southwest 317 365 11,400 -1,200 Descending Atlanta Center
Mon 12:18:27 PM 33.9933 -86.4817 227° Southwest 341 392 11,000 -400 Descending Atlanta Center
Mon 12:18:55 PM 33.9633 -86.5208 227° Southwest 325 374 11,000 -100 Level Atlanta Center
Mon 12:19:27 PM 33.9333 -86.5575 225° Southwest 330 380 10,900 -492 Descending Atlanta Center
Mon 12:19:56 PM 33.9078 -86.5919 228° Southwest 296 341 10,500 -1,300 Descending Atlanta Center
Mon 12:20:27 PM 33.8778 -86.6261 223° Southwest 314 361 9,600 -1,600 Descending Atlanta Center
Mon 12:20:56 PM 33.8497 -86.6628 227° Southwest 282 325 8,900 -1,500 Descending Atlanta Center
Mon 12:21:27 PM 33.8200 -86.6917 219° Southwest 297 342 8,100 -1,475 Descending Atlanta Center
Mon 12:21:57 PM 33.7878 -86.7283 223° Southwest 280 322 7,400 -1,300 Descending Atlanta Center
Mon 12:22:27 PM 33.7644 -86.7525 221° Southwest 282 325 6,800 -1,343 Descending Atlanta Center
Mon 12:23:04 PM 33.7300 -86.7939 225° Southwest 264 304 5,900 -1,300 Descending Atlanta Center
Mon 12:23:27 PM 33.7108 -86.8108 216° Southwest 275 316 5,500 -1,000 Descending Atlanta Center
Mon 12:24:04 PM 33.6767 -86.8469 221° Southwest 249 287 4,900 -1,000 Descending Atlanta Center
Mon 12:24:27 PM 33.6617 -86.8667 228° Southwest 264 304 4,500 -1,082 Descending Atlanta Center
Mon 12:25:05 PM 33.6272 -86.9053 223° Southwest 237 273 3,800 -1,000 Descending Atlanta Center
Mon 12:25:27 PM 33.6125 -86.9197 219° Southwest 254 292 3,500 -689 Descending Atlanta Center
Mon 12:26:06 PM 33.5803 -86.9586 225° Southwest 226 260 3,100 -303 Descending Atlanta Center
Mon 12:27:06 PM 33.5372 -87.0094 225° Southwest 220 253 3,000 -248 Descending Atlanta Center
Mon 12:28:07 PM 33.4872 -87.0053 176° South 190 219 2,600 -198 Descending Atlanta Center
Mon 12:29:07 PM 33.4739 -86.9525 107° East 181 208 2,600  Level Atlanta Center
Mon 12:30:02 PM 33.4836 -86.8956 78° East 192 221 2,600 -344 Level Atlanta Center
Mon 12:31:09 PM 33.5142 -86.8392 57° Northeast 185 213 1,900 -709 Descending Atlanta Center
Mon 12:32:09 PM 33.5400 -86.7953 55° Northeast 151 174 1,100 -800 Descending Atlanta Center

Login

Don't have an account? Register now (free) for customized features, flight alerts, and more!